Time;durP1;ratioP1;P1;durP2;ratioP2;P2;SDS_P1;SDS_P2;PMS_P1;PMS_P2;Temp;Humidity;BMP_temperature;BMP_pressure;BME280_temperature;BME280_humidity;BME280_pressure;Samples;Min_cycle;Max_cycle;Signal;HPM_P1;HPM_P2
2022/06/12 00:02:11;;;;;;;5.40;4.03;;;27.10;45.60;;;;;;5012912;28;20260;-45
2022/06/12 00:04:37;;;;;;;6.47;5.20;;;27.10;45.60;;;;;;5016301;28;20189;-44
2022/06/12 00:07:03;;;;;;;5.23;4.77;;;27.10;45.60;;;;;;5025893;28;20652;-46
2022/06/12 00:09:29;;;;;;;4.90;4.50;;;27.10;45.50;;;;;;5038531;28;20249;-45
2022/06/12 00:11:54;;;;;;;4.90;4.50;;;27.10;45.60;;;;;;5019861;28;20448;-47
2022/06/12 00:14:20;;;;;;;5.17;4.67;;;27.00;45.60;;;;;;5018932;28;20630;-45
2022/06/12 00:16:47;;;;;;;5.53;4.90;;;27.10;45.60;;;;;;5022100;28;20609;-44
2022/06/12 00:19:14;;;;;;;5.70;5.20;;;27.10;45.60;;;;;;5026029;28;20208;-45
2022/06/12 00:21:39;;;;;;;5.40;4.90;;;27.00;45.70;;;;;;5019041;28;20444;-47
2022/06/12 00:24:13;;;;;;;4.73;4.33;;;26.90;45.90;;;;;;5014537;28;20439;-46
2022/06/12 00:26:45;;;;;;;5.57;5.07;;;26.90;45.90;;;;;;5012022;28;20248;-48
2022/06/12 00:29:14;;;;;;;7.43;4.80;;;26.80;45.90;;;;;;5021137;28;21002;-45
2022/06/12 00:31:44;;;;;;;4.97;4.57;;;26.80;46.20;;;;;;5025769;28;20447;-44
2022/06/12 00:34:12;;;;;;;7.80;5.03;;;26.80;46.30;;;;;;5015900;28;20447;-47
2022/06/12 00:36:38;;;;;;;5.13;4.73;;;26.70;46.40;;;;;;5018919;28;20475;-47
2022/06/12 00:39:06;;;;;;;5.07;4.43;;;26.70;46.30;;;;;;5013079;28;20456;-49
2022/06/12 00:41:32;;;;;;;6.37;4.80;;;26.60;46.40;;;;;;5016365;28;20251;-46
2022/06/12 00:43:57;;;;;;;5.57;4.40;;;26.60;46.50;;;;;;5020293;28;20455;-49
2022/06/12 00:46:57;;;;;;;6.37;4.77;;;26.70;46.30;;;;;;5027425;28;20440;-46
2022/06/12 00:49:33;;;;;;;5.00;4.60;;;26.70;46.20;;;;;;5014433;28;20260;-45
2022/06/12 00:52:37;;;;;;;4.97;4.57;;;26.70;46.20;;;;;;5017655;28;20459;-49
2022/06/12 00:55:31;;;;;;;9.87;5.20;;;26.60;46.30;;;;;;5023372;28;20440;-47
2022/06/12 00:58:03;;;;;;;5.00;4.60;;;26.60;46.30;;;;;;5019411;28;20483;-45
2022/06/12 01:00:30;;;;;;;6.50;4.87;;;26.60;46.30;;;;;;5020923;28;20991;-48
2022/06/12 01:02:58;;;;;;;5.23;4.83;;;26.60;46.30;;;;;;5023650;28;20443;-44
2022/06/12 01:08:09;;;;;;;4.90;4.50;;;26.30;46.70;;;;;;5016472;28;20491;-45
2022/06/12 01:10:38;;;;;;;5.00;4.60;;;26.30;46.80;;;;;;5015381;28;20451;-46
2022/06/12 01:13:12;;;;;;;4.43;4.13;;;26.30;46.80;;;;;;5017759;28;20440;-48
2022/06/12 01:15:45;;;;;;;5.27;4.80;;;26.30;46.80;;;;;;5021196;28;20444;-48
2022/06/12 01:18:14;;;;;;;4.60;4.20;;;26.30;46.70;;;;;;5016640;28;20542;-44
2022/06/12 01:20:52;;;;;;;7.43;4.23;;;26.40;46.70;;;;;;5026474;28;20853;-45
2022/06/12 01:23:26;;;;;;;5.30;4.80;;;26.30;46.70;;;;;;5013861;28;20447;-48
2022/06/12 01:26:10;;;;;;;5.10;4.43;;;26.10;47.00;;;;;;5022242;28;20482;-45
2022/06/12 01:28:58;;;;;;;5.73;5.27;;;26.00;47.60;;;;;;5016236;28;20484;-48
2022/06/12 01:31:36;;;;;;;5.47;4.87;;;26.00;47.50;;;;;;5025154;28;20507;-44
2022/06/12 01:34:26;;;;;;;5.43;4.90;;;26.00;47.20;;;;;;5013469;28;20465;-45
2022/06/12 01:37:01;;;;;;;5.87;5.27;;;26.00;47.50;;;;;;5017317;28;20535;-47
2022/06/12 01:39:37;;;;;;;5.97;5.37;;;25.60;48.30;;;;;;5016718;28;21107;-44
2022/06/12 01:42:36;;;;;;;5.50;4.97;;;25.60;48.40;;;;;;5016898;28;20546;-47
2022/06/12 01:45:19;;;;;;;4.93;4.43;;;25.60;48.30;;;;;;5015822;28;20448;-46
2022/06/12 01:48:16;;;;;;;4.80;4.50;;;25.50;48.60;;;;;;5012497;28;20499;-45
2022/06/12 01:50:48;;;;;;;6.30;4.50;;;25.60;48.40;;;;;;5015394;28;21011;-45
2022/06/12 01:53:38;;;;;;;4.50;4.20;;;25.70;48.00;;;;;;5012333;28;20450;-45
2022/06/12 01:56:10;;;;;;;5.60;5.20;;;25.80;47.70;;;;;;5015732;28;20808;-44
2022/06/12 01:58:46;;;;;;;4.93;4.63;;;25.90;47.50;;;;;;5018139;28;20450;-45
2022/06/12 02:01:11;;;;;;;6.90;4.43;;;25.90;47.40;;;;;;5019998;28;21301;-44
2022/06/12 02:04:06;;;;;;;4.80;4.40;;;25.90;47.20;;;;;;5026750;28;20464;-47
2022/06/12 02:06:53;;;;;;;5.00;4.60;;;26.00;47.20;;;;;;5025162;28;20185;-44
2022/06/12 02:09:23;;;;;;;5.70;5.30;;;26.00;47.20;;;;;;5030717;28;20491;-46
2022/06/12 02:14:43;;;;;;;5.40;4.83;;;26.10;47.20;;;;;;5024070;28;20962;-45
2022/06/12 02:17:13;;;;;;;6.73;4.97;;;26.10;47.00;;;;;;5022896;28;20436;-46
2022/06/12 02:19:41;;;;;;;5.80;4.70;;;26.10;47.00;;;;;;5017907;28;20441;-44
2022/06/12 02:22:19;;;;;;;5.37;4.87;;;26.10;47.00;;;;;;5019932;28;20498;-44
2022/06/12 02:24:53;;;;;;;4.00;3.70;;;26.10;46.90;;;;;;5031749;28;20865;-44
2022/06/12 02:27:29;;;;;;;5.93;5.27;;;26.00;46.80;;;;;;5023330;28;20437;-45
2022/06/12 02:30:00;;;;;;;5.00;4.60;;;25.90;47.20;;;;;;5028092;28;20488;-43
2022/06/12 02:32:45;;;;;;;4.90;4.40;;;25.70;47.40;;;;;;5024057;28;20501;-44
2022/06/12 02:35:25;;;;;;;5.07;4.57;;;25.60;47.60;;;;;;5024362;28;20455;-44
2022/06/12 02:37:56;;;;;;;4.67;4.33;;;25.70;47.50;;;;;;5025714;28;20935;-44
2022/06/12 02:40:32;;;;;;;5.20;4.37;;;25.70;47.40;;;;;;5025668;28;20439;-43
2022/06/12 02:43:01;;;;;;;6.77;4.80;;;25.70;47.50;;;;;;5021027;28;20439;-45
2022/06/12 02:45:34;;;;;;;5.50;5.10;;;25.70;47.30;;;;;;5022971;28;20458;-44
2022/06/12 02:48:00;;;;;;;4.87;4.57;;;25.80;47.20;;;;;;5018618;28;20476;-44
2022/06/12 02:50:30;;;;;;;5.43;4.57;;;25.80;47.30;;;;;;5023375;28;20791;-44
2022/06/12 02:53:11;;;;;;;4.20;3.87;;;25.80;47.10;;;;;;5019402;28;20935;-45
2022/06/12 02:55:44;;;;;;;7.20;4.13;;;25.90;47.10;;;;;;5023654;28;20483;-45
2022/06/12 02:58:29;;;;;;;5.07;4.57;;;25.90;47.00;;;;;;5021758;28;20602;-46
2022/06/12 03:01:16;;;;;;;4.77;4.30;;;25.90;46.90;;;;;;5012482;28;20571;-46
2022/06/12 03:03:44;;;;;;;4.73;4.33;;;25.80;46.90;;;;;;5025683;28;20581;-44
2022/06/12 03:06:11;;;;;;;4.60;4.20;;;25.80;46.80;;;;;;5018466;28;20443;-44
2022/06/12 03:08:43;;;;;;;4.67;4.37;;;25.80;47.50;;;;;;5015184;28;20483;-44
2022/06/12 03:11:15;;;;;;;4.50;4.10;;;25.80;46.90;;;;;;5025978;28;20526;-43
2022/06/12 03:13:42;;;;;;;4.77;4.37;;;25.80;47.00;;;;;;5026417;28;20474;-45
2022/06/12 03:16:14;;;;;;;3.93;3.63;;;25.80;47.00;;;;;;5019614;28;20475;-44
2022/06/12 03:18:43;;;;;;;4.47;4.17;;;25.70;46.90;;;;;;5019744;28;20471;-45
2022/06/12 03:21:42;;;;;;;4.53;3.90;;;25.70;46.90;;;;;;5024766;28;20485;-44
2022/06/12 03:24:25;;;;;;;9.63;3.83;;;25.60;47.20;;;;;;5025981;28;20463;-45
2022/06/12 03:27:21;;;;;;;5.03;4.60;;;25.50;47.50;;;;;;5018128;28;20445;-44
2022/06/12 03:29:47;;;;;;;4.97;4.37;;;25.50;47.30;;;;;;5019250;28;20499;-43
2022/06/12 03:32:37;;;;;;;5.20;4.53;;;25.40;47.30;;;;;;5022116;28;20829;-43
2022/06/12 03:35:32;;;;;;;4.93;4.53;;;25.30;47.70;;;;;;5014035;28;20225;-45
2022/06/12 03:38:06;;;;;;;4.60;4.27;;;25.00;48.40;;;;;;5023309;28;20448;-44
2022/06/12 03:40:43;;;;;;;6.00;4.13;;;24.90;48.60;;;;;;5020903;28;20451;-44
2022/06/12 03:43:11;;;;;;;5.10;4.70;;;24.80;48.90;;;;;;5019944;28;20485;-46
2022/06/12 03:45:42;;;;;;;5.10;4.70;;;24.50;49.60;;;;;;5024004;28;21191;-47
2022/06/12 03:48:08;;;;;;;5.20;4.67;;;24.20;50.00;;;;;;5011923;28;22191;-44
2022/06/12 03:50:41;;;;;;;5.13;4.73;;;24.30;50.10;;;;;;5017906;28;20448;-49
2022/06/12 03:53:15;;;;;;;5.20;4.37;;;24.20;50.10;;;;;;5019142;28;20207;-45
2022/06/12 03:58:41;;;;;;;4.97;4.57;;;24.10;50.40;;;;;;5018139;28;21408;-43
2022/06/12 04:01:07;;;;;;;5.07;4.67;;;23.60;51.40;;;;;;5020408;28;20503;-47
2022/06/12 04:03:37;;;;;;;5.40;4.83;;;23.40;52.20;;;;;;5027922;28;21544;-47
2022/06/12 04:06:08;;;;;;;5.30;4.67;;;23.30;52.30;;;;;;5018788;28;20459;-45
2022/06/12 04:08:44;;;;;;;8.57;4.50;;;22.80;53.30;;;;;;5020623;28;20491;-45
2022/06/12 04:11:12;;;;;;;6.60;4.23;;;22.90;53.60;;;;;;5022777;28;20474;-43
2022/06/12 04:13:40;;;;;;;4.73;4.20;;;23.20;53.00;;;;;;5026371;28;20431;-48
2022/06/12 04:16:19;;;;;;;5.37;4.67;;;23.10;52.80;;;;;;5017875;28;20464;-44
2022/06/12 04:18:45;;;;;;;5.30;4.53;;;23.10;53.10;;;;;;5015241;28;20483;-46
2022/06/12 04:21:18;;;;;;;5.87;4.90;;;23.20;52.90;;;;;;5024961;28;20530;-46
2022/06/12 04:24:15;;;;;;;5.13;4.80;;;23.00;53.30;;;;;;5025185;28;20444;-47
2022/06/12 04:26:52;;;;;;;5.20;4.70;;;22.60;54.40;;;;;;5014133;28;20457;-44
2022/06/12 04:29:29;;;;;;;4.70;4.30;;;22.60;54.50;;;;;;5020278;28;20939;-43
2022/06/12 04:31:57;;;;;;;5.00;4.50;;;22.70;54.20;;;;;;5019350;28;20483;-44
2022/06/12 04:34:28;;;;;;;4.60;4.27;;;22.30;55.10;;;;;;5020521;28;20432;-43
2022/06/12 04:36:59;;;;;;;4.60;4.30;;;22.20;55.60;;;;;;5021245;28;20797;-44
2022/06/12 04:39:28;;;;;;;5.57;5.07;;;22.10;56.00;;;;;;5030268;28;22802;-47
2022/06/12 04:41:55;;;;;;;6.80;4.37;;;22.20;55.80;;;;;;5022779;28;20444;-44
2022/06/12 04:44:21;;;;;;;5.17;4.77;;;22.10;56.00;;;;;;5027758;28;20533;-44
2022/06/12 04:46:49;;;;;;;5.40;4.67;;;22.30;55.70;;;;;;5013491;28;20448;-44
2022/06/12 04:49:21;;;;;;;5.10;4.60;;;22.50;55.20;;;;;;5010857;28;20499;-44
2022/06/12 04:51:48;;;;;;;6.13;4.93;;;22.30;55.90;;;;;;5015441;28;20440;-44
2022/06/12 04:54:14;;;;;;;5.23;4.73;;;22.40;55.70;;;;;;5021278;28;20432;-44
2022/06/12 04:56:40;;;;;;;5.30;4.80;;;22.70;55.20;;;;;;5017797;28;20448;-45
2022/06/12 04:59:06;;;;;;;5.60;4.80;;;22.70;54.80;;;;;;5024914;28;20441;-43
2022/06/12 05:01:32;;;;;;;5.47;4.30;;;23.00;54.50;;;;;;5022282;28;20479;-44
2022/06/12 05:03:59;;;;;;;4.20;3.90;;;23.20;54.00;;;;;;5020088;28;20857;-44
2022/06/12 05:06:25;;;;;;;4.90;4.60;;;23.40;53.70;;;;;;5023613;28;21169;-45
2022/06/12 05:08:52;;;;;;;4.27;3.97;;;23.60;53.10;;;;;;5019286;28;20500;-45
2022/06/12 05:11:19;;;;;;;5.33;4.83;;;23.50;53.20;;;;;;5016594;28;20620;-44
2022/06/12 05:13:45;;;;;;;6.70;4.10;;;23.30;53.80;;;;;;5022124;28;20439;-44
2022/06/12 05:16:34;;;;;;;6.20;4.90;;;23.20;54.20;;;;;;5021995;28;20440;-44
2022/06/12 05:19:01;;;;;;;5.53;5.03;;;23.00;54.90;;;;;;5011597;28;20220;-45
2022/06/12 05:21:28;;;;;;;6.60;5.83;;;23.00;55.00;;;;;;5021934;28;20451;-43
2022/06/12 05:23:54;;;;;;;5.97;4.63;;;23.20;54.50;;;;;;5023466;28;20443;-43
2022/06/12 05:26:20;;;;;;;5.53;5.03;;;23.30;54.30;;;;;;5021872;28;20813;-44
2022/06/12 05:28:47;;;;;;;8.60;4.80;;;23.20;54.60;;;;;;5024579;28;20483;-45
2022/06/12 05:31:12;;;;;;;5.40;5.00;;;22.90;55.30;;;;;;5018134;28;20445;-44
2022/06/12 05:33:38;;;;;;;8.40;4.80;;;22.90;55.30;;;;;;5016982;28;20451;-45
2022/06/12 05:36:06;;;;;;;6.40;4.37;;;23.00;55.60;;;;;;5004873;28;20197;-44
2022/06/12 05:38:32;;;;;;;5.33;4.93;;;23.10;55.20;;;;;;5010805;28;20577;-45
2022/06/12 05:40:57;;;;;;;5.50;5.10;;;23.20;54.90;;;;;;5008784;28;20445;-44
2022/06/12 05:43:23;;;;;;;6.13;4.80;;;23.50;54.30;;;;;;5019536;28;20223;-43
2022/06/12 05:45:49;;;;;;;4.90;4.50;;;23.80;53.50;;;;;;5021389;28;20200;-44
2022/06/12 05:48:18;;;;;;;5.57;4.47;;;24.10;52.80;;;;;;5023761;28;20643;-46
2022/06/12 05:50:56;;;;;;;4.97;4.57;;;24.30;52.30;;;;;;5017956;28;20201;-46
2022/06/12 05:53:24;;;;;;;4.57;4.20;;;24.30;52.10;;;;;;5023409;28;20534;-46
2022/06/12 05:55:51;;;;;;;4.50;4.20;;;24.60;51.90;;;;;;5013479;28;21281;-46
2022/06/12 05:58:19;;;;;;;5.03;4.40;;;24.60;51.80;;;;;;5017258;28;20559;-44
2022/06/12 06:00:47;;;;;;;4.70;4.30;;;24.70;52.10;;;;;;5021379;28;20576;-49
2022/06/12 06:03:13;;;;;;;5.27;4.87;;;24.80;51.60;;;;;;5022091;28;20539;-47
2022/06/12 06:05:40;;;;;;;8.33;5.50;;;24.90;51.40;;;;;;5032252;28;20649;-45
2022/06/12 06:08:06;;;;;;;7.43;6.53;;;24.80;51.40;;;;;;5023262;28;20523;-48
2022/06/12 06:10:32;;;;;;;4.47;4.07;;;24.90;51.30;;;;;;5030216;28;20478;-43
2022/06/12 06:12:59;;;;;;;4.90;4.50;;;25.00;50.90;;;;;;5030034;28;20476;-47
2022/06/12 06:15:25;;;;;;;4.90;4.50;;;25.20;50.70;;;;;;5027357;28;20454;-44
2022/06/12 06:17:52;;;;;;;5.30;4.80;;;25.00;50.90;;;;;;5025303;28;20439;-44
2022/06/12 06:20:23;;;;;;;4.97;4.57;;;24.60;52.00;;;;;;5023826;28;20194;-45
2022/06/12 06:22:50;;;;;;;6.87;5.47;;;24.50;52.50;;;;;;5029232;28;20444;-46
2022/06/12 06:25:16;;;;;;;5.40;4.87;;;24.60;52.50;;;;;;5035084;28;20454;-44
2022/06/12 06:27:42;;;;;;;4.80;4.07;;;24.50;52.90;;;;;;5023776;28;20448;-44
2022/06/12 06:30:08;;;;;;;5.57;4.87;;;24.60;52.80;;;;;;5018268;28;20852;-44
2022/06/12 06:32:34;;;;;;;6.80;4.87;;;24.80;52.40;;;;;;5022999;28;20204;-44
2022/06/12 06:35:01;;;;;;;5.50;5.00;;;25.10;51.90;;;;;;5022216;28;20444;-48
2022/06/12 06:37:26;;;;;;;5.37;4.90;;;25.30;51.10;;;;;;5030142;28;20201;-45
2022/06/12 06:39:52;;;;;;;6.27;5.87;;;25.40;51.30;;;;;;5016020;28;20444;-43
2022/06/12 06:42:18;;;;;;;5.63;5.10;;;25.40;51.30;;;;;;5020310;28;20203;-46
2022/06/12 06:47:28;;;;;;;6.03;4.63;;;25.50;51.10;;;;;;5031983;28;20208;-47
2022/06/12 06:49:54;;;;;;;5.63;4.50;;;25.60;51.00;;;;;;5021109;28;20870;-45
2022/06/12 06:52:20;;;;;;;6.00;4.60;;;25.60;50.80;;;;;;5022917;28;20207;-45
2022/06/12 06:54:46;;;;;;;4.90;4.50;;;25.80;50.40;;;;;;5026048;28;20197;-46
2022/06/12 06:57:12;;;;;;;7.53;4.87;;;25.90;50.30;;;;;;5020128;28;20503;-43
2022/06/12 06:59:38;;;;;;;4.70;4.40;;;26.00;50.40;;;;;;5020430;28;20272;-45
2022/06/12 07:02:04;;;;;;;7.43;4.80;;;26.10;50.30;;;;;;5025884;28;20448;-47
2022/06/12 07:04:30;;;;;;;5.53;5.10;;;26.20;50.00;;;;;;5027754;28;20451;-44
2022/06/12 07:06:55;;;;;;;4.47;4.07;;;26.30;49.70;;;;;;5025928;28;20444;-44
2022/06/12 07:09:21;;;;;;;5.63;4.70;;;26.50;49.50;;;;;;5032023;28;20316;-46
2022/06/12 07:11:47;;;;;;;5.20;4.90;;;26.50;49.40;;;;;;5029834;28;20193;-45
2022/06/12 07:14:12;;;;;;;4.77;4.37;;;26.60;49.00;;;;;;5031545;28;20193;-44
2022/06/12 07:16:39;;;;;;;5.00;4.60;;;26.80;49.10;;;;;;5026809;28;20193;-45
2022/06/12 07:19:06;;;;;;;5.97;4.70;;;26.90;48.70;;;;;;5031778;28;20263;-48
2022/06/12 07:21:31;;;;;;;5.63;4.87;;;26.90;48.70;;;;;;5028033;28;20439;-45
2022/06/12 07:23:57;;;;;;;4.87;4.27;;;27.00;48.70;;;;;;5031124;28;20462;-43
2022/06/12 07:26:27;;;;;;;4.90;4.43;;;27.20;48.40;;;;;;5028632;28;20189;-44
2022/06/12 07:28:53;;;;;;;5.67;4.40;;;27.20;47.70;;;;;;5031313;28;20224;-44
2022/06/12 07:31:20;;;;;;;5.17;4.77;;;27.40;47.40;;;;;;5028885;28;20452;-46
2022/06/12 07:33:46;;;;;;;5.10;4.80;;;27.40;47.20;;;;;;5027073;28;20195;-45
2022/06/12 07:36:14;;;;;;;5.43;4.93;;;27.40;47.40;;;;;;5029798;28;20436;-43
2022/06/12 07:38:41;;;;;;;4.77;4.27;;;27.40;47.10;;;;;;5030981;28;20201;-45
2022/06/12 07:41:10;;;;;;;7.63;4.40;;;27.50;46.40;;;;;;5029476;28;20447;-44
2022/06/12 07:43:37;;;;;;;7.30;3.93;;;27.70;46.50;;;;;;5028887;28;20443;-47
2022/06/12 07:46:06;;;;;;;4.20;3.80;;;27.80;46.40;;;;;;5022151;28;20527;-46
2022/06/12 07:48:32;;;;;;;4.40;4.00;;;28.00;45.70;;;;;;5028004;28;20484;-45
2022/06/12 07:50:59;;;;;;;4.13;3.83;;;28.10;44.90;;;;;;5030544;28;20440;-44
2022/06/12 07:53:25;;;;;;;4.37;3.97;;;28.30;44.90;;;;;;5016988;28;20576;-46
2022/06/12 07:55:52;;;;;;;4.37;4.00;;;28.50;45.30;;;;;;5028180;28;20448;-45
2022/06/12 07:58:19;;;;;;;4.50;4.20;;;28.70;45.10;;;;;;5028205;28;20447;-46
2022/06/12 08:00:47;;;;;;;4.23;3.93;;;28.80;44.40;;;;;;5030680;28;20562;-44
2022/06/12 08:03:13;;;;;;;4.33;4.03;;;28.90;44.50;;;;;;5029379;28;20454;-45
2022/06/12 08:05:38;;;;;;;4.20;3.90;;;29.10;44.00;;;;;;5028790;28;20523;-44
2022/06/12 08:08:04;;;;;;;4.20;3.90;;;29.20;42.60;;;;;;5027368;28;20198;-44
2022/06/12 08:10:30;;;;;;;4.07;3.77;;;29.40;42.70;;;;;;5029703;28;20209;-43
2022/06/12 08:12:56;;;;;;;4.20;3.90;;;29.50;43.20;;;;;;5030329;28;20193;-44
2022/06/12 08:15:26;;;;;;;4.43;4.07;;;29.70;43.20;;;;;;5021912;28;20443;-45
2022/06/12 08:17:53;;;;;;;4.13;3.80;;;29.80;42.60;;;;;;5020479;28;20444;-44
2022/06/12 08:20:25;;;;;;;4.83;4.40;;;30.00;42.60;;;;;;5029427;28;21005;-44
2022/06/12 08:23:33;;;;;;;5.23;4.40;;;30.00;42.10;;;;;;5028821;28;20987;-44
2022/06/12 08:26:09;;;;;;;5.10;4.50;;;30.10;42.30;;;;;;5017595;28;20468;-44
2022/06/12 08:28:48;;;;;;;6.17;3.73;;;30.20;42.60;;;;;;5028148;28;20843;-45
2022/06/12 08:31:20;;;;;;;4.90;4.43;;;30.30;43.20;;;;;;5027850;28;20459;-45
2022/06/12 08:33:51;;;;;;;4.40;3.60;;;30.40;43.10;;;;;;5029937;28;20538;-47
2022/06/12 08:36:18;;;;;;;4.23;3.83;;;30.50;43.10;;;;;;5027928;28;20939;-44
2022/06/12 08:38:44;;;;;;;5.73;4.17;;;30.60;42.00;;;;;;5028858;28;20471;-45
2022/06/12 08:41:17;;;;;;;4.37;3.97;;;30.60;41.50;;;;;;5026976;28;20480;-45
2022/06/12 08:44:02;;;;;;;3.77;3.47;;;30.70;40.00;;;;;;5026343;28;20251;-44
2022/06/12 08:46:36;;;;;;;6.83;3.97;;;30.80;39.00;;;;;;5031384;28;20547;-44
2022/06/12 08:49:08;;;;;;;3.57;3.27;;;30.90;39.10;;;;;;5024692;28;20480;-46
2022/06/12 08:51:41;;;;;;;4.00;3.70;;;31.00;38.80;;;;;;5015020;28;20527;-47
2022/06/12 08:54:18;;;;;;;3.67;3.47;;;31.10;38.20;;;;;;5021198;28;20958;-47
2022/06/12 08:56:56;;;;;;;4.00;3.70;;;31.20;38.20;;;;;;5022083;28;20517;-45
2022/06/12 08:59:44;;;;;;;4.20;3.77;;;31.30;38.40;;;;;;5026387;28;20813;-44
2022/06/12 09:02:26;;;;;;;3.90;3.60;;;31.40;38.20;;;;;;5022338;28;20460;-44
2022/06/12 09:04:52;;;;;;;3.50;3.20;;;31.50;37.90;;;;;;5016993;28;20509;-45
2022/06/12 09:07:52;;;;;;;3.30;3.10;;;31.60;37.90;;;;;;5022803;28;20595;-48
2022/06/12 09:10:40;;;;;;;4.00;3.23;;;31.60;36.80;;;;;;5037720;28;20541;-45
2022/06/12 09:13:47;;;;;;;5.10;3.50;;;31.70;36.40;;;;;;5022313;28;20497;-46
2022/06/12 09:16:13;;;;;;;5.90;3.27;;;31.90;37.00;;;;;;5007295;28;20460;-44
2022/06/12 09:18:53;;;;;;;3.30;3.10;;;32.00;37.00;;;;;;5020496;28;20444;-45
2022/06/12 09:21:34;;;;;;;4.10;3.70;;;32.10;37.20;;;;;;5018882;28;20449;-47
2022/06/12 09:24:03;;;;;;;5.20;3.50;;;32.20;36.30;;;;;;5017792;28;20447;-46
2022/06/12 09:27:24;;;;;;;5.73;3.27;;;32.30;36.30;;;;;;5021250;28;20463;-44
2022/06/12 09:30:01;;;;;;;3.43;3.07;;;32.50;35.80;;;;;;5012330;28;20494;-47
2022/06/12 09:32:41;;;;;;;3.80;3.50;;;32.50;35.90;;;;;;5018231;28;20448;-44
2022/06/12 09:35:21;;;;;;;3.17;2.87;;;32.60;35.40;;;;;;5022317;28;20730;-44
2022/06/12 09:38:21;;;;;;;2.93;2.73;;;32.70;34.60;;;;;;5028891;28;20455;-47
2022/06/12 09:40:52;;;;;;;3.60;3.30;;;32.80;34.20;;;;;;5019440;28;20870;-46
2022/06/12 09:43:46;;;;;;;3.27;2.90;;;32.80;33.70;;;;;;5032101;28;20466;-44
2022/06/12 09:46:50;;;;;;;3.97;3.60;;;33.00;33.80;;;;;;5024311;28;20463;-43
2022/06/12 09:49:33;;;;;;;3.37;3.07;;;33.00;33.20;;;;;;5021068;28;20511;-43
2022/06/12 09:52:17;;;;;;;2.90;2.70;;;33.30;32.70;;;;;;5021029;28;20445;-45
2022/06/12 09:55:06;;;;;;;4.70;3.37;;;33.40;33.00;;;;;;5027463;28;20444;-46
2022/06/12 09:57:49;;;;;;;3.40;2.60;;;33.50;32.60;;;;;;5023073;28;20444;-44
2022/06/12 10:00:24;;;;;;;3.20;3.00;;;33.60;32.70;;;;;;5026538;28;21016;-43
2022/06/12 10:03:17;;;;;;;3.80;3.50;;;33.80;33.20;;;;;;5016190;28;21000;-44
2022/06/12 10:06:02;;;;;;;3.87;3.53;;;33.90;32.10;;;;;;5011293;28;20534;-43
2022/06/12 10:08:30;;;;;;;2.87;2.63;;;34.20;32.40;;;;;;5016234;28;21140;-46
2022/06/12 10:11:13;;;;;;;4.70;3.30;;;34.30;30.90;;;;;;5031140;28;20468;-43
2022/06/12 10:13:43;;;;;;;3.00;2.80;;;34.40;30.80;;;;;;5013775;28;20449;-48
2022/06/12 10:16:14;;;;;;;2.87;2.63;;;34.30;31.00;;;;;;5015487;28;20905;-44
2022/06/12 10:18:57;;;;;;;5.90;2.33;;;34.50;30.50;;;;;;5014633;28;20436;-47
2022/06/12 10:21:25;;;;;;;4.10;2.83;;;34.30;30.70;;;;;;5017650;28;20441;-47
2022/06/12 10:23:51;;;;;;;3.30;3.00;;;34.60;31.20;;;;;;5015340;28;20454;-45
2022/06/12 10:26:19;;;;;;;3.47;3.20;;;34.90;30.40;;;;;;5014098;28;20478;-44
2022/06/12 10:28:46;;;;;;;3.90;3.53;;;35.10;29.80;;;;;;5023683;28;20519;-44
2022/06/12 10:31:11;;;;;;;5.67;2.83;;;35.20;29.30;;;;;;5020902;28;20809;-45
2022/06/12 10:33:51;;;;;;;9.20;3.90;;;34.80;29.60;;;;;;5021845;28;20461;-43
2022/06/12 10:36:32;;;;;;;7.13;2.70;;;34.70;29.60;;;;;;5013590;28;20231;-46
2022/06/12 10:39:08;;;;;;;3.00;2.70;;;35.10;29.80;;;;;;5018782;28;20466;-48
2022/06/12 10:41:43;;;;;;;4.37;3.53;;;35.30;29.40;;;;;;5021138;28;20455;-44
2022/06/12 10:44:27;;;;;;;3.17;2.60;;;35.60;29.20;;;;;;5016577;28;21014;-47
2022/06/12 10:46:53;;;;;;;3.00;2.70;;;35.80;29.20;;;;;;5030358;28;20443;-43
2022/06/12 10:49:22;;;;;;;2.67;2.47;;;36.00;29.80;;;;;;5028829;28;20557;-45
2022/06/12 10:51:49;;;;;;;3.13;2.67;;;36.10;28.60;;;;;;5025013;28;20661;-44
2022/06/12 10:54:26;;;;;;;4.43;2.47;;;36.30;28.40;;;;;;5022833;28;20513;-44
2022/06/12 10:56:55;;;;;;;3.00;2.50;;;36.50;29.00;;;;;;5018032;28;20444;-44
2022/06/12 10:59:40;;;;;;;2.60;2.30;;;36.60;29.50;;;;;;5026072;28;20453;-44
2022/06/12 11:02:22;;;;;;;3.00;2.80;;;36.70;29.70;;;;;;5019360;28;20940;-44
2022/06/12 11:05:06;;;;;;;3.03;2.67;;;36.80;27.80;;;;;;5026034;28;20451;-45
2022/06/12 11:07:47;;;;;;;3.00;2.77;;;36.70;27.50;;;;;;5027716;28;20444;-46
2022/06/12 11:10:50;;;;;;;5.47;2.97;;;36.80;27.90;;;;;;5023370;28;20491;-45
2022/06/12 11:13:55;;;;;;;3.00;2.70;;;37.00;27.90;;;;;;5018159;28;20458;-44
2022/06/12 11:16:54;;;;;;;2.73;2.50;;;37.30;28.40;;;;;;5026447;28;20446;-44
2022/06/12 11:19:26;;;;;;;3.73;2.50;;;37.50;28.10;;;;;;5020303;28;20525;-43
2022/06/12 11:22:11;;;;;;;3.40;2.00;;;37.60;27.80;;;;;;5021793;28;20969;-44
2022/06/12 11:25:08;;;;;;;2.90;2.70;;;37.70;27.70;;;;;;5025780;28;20923;-43
2022/06/12 11:27:42;;;;;;;4.50;2.50;;;37.80;26.80;;;;;;5014574;28;20452;-43
2022/06/12 11:30:13;;;;;;;2.63;2.40;;;37.90;27.80;;;;;;5031739;28;20486;-46
2022/06/12 11:32:55;;;;;;;3.90;2.90;;;38.10;26.80;;;;;;5026649;28;20491;-46
2022/06/12 11:36:09;;;;;;;3.07;2.47;;;38.10;25.50;;;;;;5027645;28;20447;-44
2022/06/12 11:38:52;;;;;;;2.73;2.53;;;37.40;26.40;;;;;;5031341;28;20447;-44
2022/06/12 11:41:49;;;;;;;3.13;2.93;;;37.60;26.60;;;;;;5024294;28;20530;-44
2022/06/12 11:44:24;;;;;;;2.97;2.43;;;37.70;26.00;;;;;;5012702;28;20459;-44
2022/06/12 11:47:02;;;;;;;4.53;2.73;;;37.80;25.90;;;;;;5016549;28;20479;-43
2022/06/12 11:49:36;;;;;;;2.90;2.40;;;38.10;25.80;;;;;;5023329;28;20489;-46
2022/06/12 11:52:07;;;;;;;3.13;2.60;;;38.10;25.60;;;;;;5026471;28;20439;-46
2022/06/12 11:54:54;;;;;;;2.40;2.20;;;38.10;25.30;;;;;;5018749;28;20825;-44
2022/06/12 11:57:26;;;;;;;2.63;2.27;;;38.10;26.80;;;;;;5021610;28;20966;-49
2022/06/12 11:59:58;;;;;;;2.90;2.70;;;38.20;26.50;;;;;;5027756;28;20443;-46
2022/06/12 12:02:50;;;;;;;2.83;2.50;;;38.10;25.80;;;;;;5027439;28;20454;-44
2022/06/12 12:05:36;;;;;;;2.90;2.37;;;38.20;26.90;;;;;;5012584;28;20456;-46
2022/06/12 12:08:06;;;;;;;3.40;3.10;;;38.50;25.80;;;;;;5022520;28;20469;-45
2022/06/12 12:10:46;;;;;;;3.60;2.60;;;38.60;25.50;;;;;;5018966;28;20480;-45
2022/06/12 12:13:20;;;;;;;4.87;2.53;;;38.70;25.00;;;;;;5021627;28;20480;-47
2022/06/12 12:16:01;;;;;;;2.57;2.27;;;38.70;25.20;;;;;;5021388;28;20977;-45
2022/06/12 12:18:34;;;;;;;3.37;2.57;;;38.80;26.00;;;;;;5013925;28;21463;-46
2022/06/12 12:21:03;;;;;;;4.20;2.97;;;38.80;25.50;;;;;;5016646;28;20443;-45
2022/06/12 12:23:36;;;;;;;5.40;3.10;;;38.20;25.30;;;;;;5017815;28;20462;-45
2022/06/12 12:26:18;;;;;;;3.03;2.83;;;37.40;26.40;;;;;;5024214;28;20440;-47
2022/06/12 12:28:55;;;;;;;3.60;3.00;;;37.80;26.00;;;;;;5015202;28;20602;-45
2022/06/12 12:31:22;;;;;;;2.83;2.40;;;38.10;26.40;;;;;;5019054;28;20451;-46
2022/06/12 12:33:50;;;;;;;3.23;2.93;;;38.40;26.60;;;;;;5027390;28;20446;-50
2022/06/12 12:42:18;;;;;;;2.90;2.47;;;38.80;25.50;;;;;;5026373;28;20529;-43
2022/06/12 12:44:46;;;;;;;2.97;2.67;;;39.00;25.10;;;;;;5026447;28;20521;-47
2022/06/12 12:47:26;;;;;;;2.83;2.63;;;39.00;24.90;;;;;;5023057;28;21130;-45
2022/06/12 12:50:16;;;;;;;4.33;3.83;;;39.00;24.70;;;;;;5017474;28;20495;-46
2022/06/12 12:52:45;;;;;;;3.03;2.80;;;39.10;25.30;;;;;;5017799;28;20926;-47
2022/06/12 12:55:33;;;;;;;3.50;2.50;;;39.00;24.40;;;;;;5017392;28;20444;-49
2022/06/12 12:58:12;;;;;;;3.13;2.93;;;39.10;24.80;;;;;;5016010;28;20444;-46
2022/06/12 13:00:38;;;;;;;3.03;2.60;;;39.20;25.00;;;;;;5014995;28;20484;-48
2022/06/12 13:03:38;;;;;;;4.77;2.97;;;39.30;25.80;;;;;;5022682;28;20454;-49
2022/06/12 13:06:21;;;;;;;3.50;3.03;;;39.40;24.80;;;;;;5024953;28;21232;-43
2022/06/12 13:09:16;;;;;;;3.33;2.70;;;39.50;24.50;;;;;;5018270;28;20514;-47
2022/06/12 13:12:07;;;;;;;2.73;2.53;;;39.60;24.90;;;;;;5020808;28;20448;-47
2022/06/12 13:14:44;;;;;;;3.30;3.00;;;39.70;25.20;;;;;;5017988;28;20799;-43
2022/06/12 13:18:07;;;;;;;2.60;2.40;;;39.90;25.40;;;;;;5023831;28;20446;-45
2022/06/12 13:20:48;;;;;;;3.27;2.97;;;40.00;25.30;;;;;;5027915;28;20581;-48
2022/06/12 13:23:37;;;;;;;2.93;2.73;;;40.00;25.20;;;;;;5016248;28;20943;-49
2022/06/12 13:26:07;;;;;;;3.13;2.93;;;40.10;25.40;;;;;;5011347;28;20524;-44
2022/06/12 13:28:33;;;;;;;3.03;2.83;;;40.20;24.80;;;;;;5022213;28;20471;-48
2022/06/12 13:31:01;;;;;;;4.63;2.83;;;40.20;25.20;;;;;;5017341;28;20483;-47
2022/06/12 13:33:33;;;;;;;3.23;3.03;;;40.20;24.40;;;;;;5022991;28;20447;-49
2022/06/12 13:36:03;;;;;;;3.13;2.60;;;40.20;24.20;;;;;;5025728;28;20973;-47
2022/06/12 13:38:33;;;;;;;3.37;3.00;;;40.00;24.90;;;;;;5027464;28;20486;-45
2022/06/12 13:41:05;;;;;;;5.70;2.50;;;40.00;25.00;;;;;;5019130;28;20440;-46
2022/06/12 13:43:41;;;;;;;4.00;2.73;;;40.00;24.80;;;;;;5019014;28;20454;-45